sensor_id;sensor_type;location;lat;lon;timestamp;temperature;humidity
20712;DHT22;10517;50.742;4.224;2023-07-20T00:01:27;15.90;99.90
20712;DHT22;10517;50.742;4.224;2023-07-20T00:03:53;15.90;99.90
20712;DHT22;10517;50.742;4.224;2023-07-20T00:06:24;15.90;99.90
20712;DHT22;10517;50.742;4.224;2023-07-20T00:08:53;15.90;99.90
20712;DHT22;10517;50.742;4.224;2023-07-20T00:11:18;15.90;99.90
20712;DHT22;10517;50.742;4.224;2023-07-20T00:13:44;16.00;99.90
20712;DHT22;10517;50.742;4.224;2023-07-20T00:16:10;16.00;99.90
20712;DHT22;10517;50.742;4.224;2023-07-20T00:18:36;16.10;99.90
20712;DHT22;10517;50.742;4.224;2023-07-20T00:21:01;16.00;99.90
20712;DHT22;10517;50.742;4.224;2023-07-20T00:23:27;16.00;99.90
20712;DHT22;10517;50.742;4.224;2023-07-20T00:25:53;16.10;99.90
20712;DHT22;10517;50.742;4.224;2023-07-20T00:28:19;16.00;99.90
20712;DHT22;10517;50.742;4.224;2023-07-20T00:30:44;16.00;99.90
20712;DHT22;10517;50.742;4.224;2023-07-20T00:33:11;16.00;99.90
20712;DHT22;10517;50.742;4.224;2023-07-20T00:35:37;16.00;99.90
20712;DHT22;10517;50.742;4.224;2023-07-20T00:38:03;15.90;99.90
20712;DHT22;10517;50.742;4.224;2023-07-20T00:40:35;15.90;99.90
20712;DHT22;10517;50.742;4.224;2023-07-20T00:43:00;16.00;99.90
20712;DHT22;10517;50.742;4.224;2023-07-20T00:45:26;15.90;99.90
20712;DHT22;10517;50.742;4.224;2023-07-20T00:47:52;15.90;99.90
20712;DHT22;10517;50.742;4.224;2023-07-20T00:50:18;15.90;99.90
20712;DHT22;10517;50.742;4.224;2023-07-20T00:52:43;16.00;99.90
20712;DHT22;10517;50.742;4.224;2023-07-20T00:55:09;16.00;99.90
20712;DHT22;10517;50.742;4.224;2023-07-20T00:57:35;16.10;99.90
20712;DHT22;10517;50.742;4.224;2023-07-20T01:00:01;16.10;99.90
20712;DHT22;10517;50.742;4.224;2023-07-20T01:02:27;16.20;99.90
20712;DHT22;10517;50.742;4.224;2023-07-20T01:04:52;16.20;99.90
20712;DHT22;10517;50.742;4.224;2023-07-20T01:07:23;16.20;99.90
20712;DHT22;10517;50.742;4.224;2023-07-20T01:10:03;16.20;99.90
20712;DHT22;10517;50.742;4.224;2023-07-20T01:15:06;16.40;99.90
20712;DHT22;10517;50.742;4.224;2023-07-20T01:17:33;16.40;99.90
20712;DHT22;10517;50.742;4.224;2023-07-20T01:19:59;16.40;99.90
20712;DHT22;10517;50.742;4.224;2023-07-20T01:31:41;16.30;99.90
20712;DHT22;10517;50.742;4.224;2023-07-20T01:34:09;16.30;99.90
20712;DHT22;10517;50.742;4.224;2023-07-20T01:36:37;16.30;99.90
20712;DHT22;10517;50.742;4.224;2023-07-20T01:39:04;16.30;99.90
20712;DHT22;10517;50.742;4.224;2023-07-20T01:41:30;16.30;99.90
20712;DHT22;10517;50.742;4.224;2023-07-20T01:43:59;16.40;99.90
20712;DHT22;10517;50.742;4.224;2023-07-20T01:46:25;16.40;99.90
20712;DHT22;10517;50.742;4.224;2023-07-20T01:48:51;16.40;99.90
20712;DHT22;10517;50.742;4.224;2023-07-20T01:51:17;16.40;99.90
20712;DHT22;10517;50.742;4.224;2023-07-20T01:53:43;16.40;99.90
20712;DHT22;10517;50.742;4.224;2023-07-20T01:56:09;16.40;99.90
20712;DHT22;10517;50.742;4.224;2023-07-20T01:58:34;16.40;99.90
20712;DHT22;10517;50.742;4.224;2023-07-20T02:01:00;16.50;99.90
20712;DHT22;10517;50.742;4.224;2023-07-20T02:03:27;16.60;99.90
20712;DHT22;10517;50.742;4.224;2023-07-20T02:05:52;16.60;99.90
20712;DHT22;10517;50.742;4.224;2023-07-20T02:08:18;16.70;99.90
20712;DHT22;10517;50.742;4.224;2023-07-20T02:10:47;16.70;99.90
20712;DHT22;10517;50.742;4.224;2023-07-20T02:13:13;16.70;99.90
20712;DHT22;10517;50.742;4.224;2023-07-20T02:15:38;16.60;99.90
20712;DHT22;10517;50.742;4.224;2023-07-20T02:18:04;16.60;99.90
20712;DHT22;10517;50.742;4.224;2023-07-20T02:20:30;16.50;99.90
20712;DHT22;10517;50.742;4.224;2023-07-20T02:22:55;16.60;99.90
20712;DHT22;10517;50.742;4.224;2023-07-20T02:25:21;16.60;99.90
20712;DHT22;10517;50.742;4.224;2023-07-20T02:27:47;16.50;99.90
20712;DHT22;10517;50.742;4.224;2023-07-20T02:30:12;16.50;99.90
20712;DHT22;10517;50.742;4.224;2023-07-20T02:32:39;16.40;99.90
20712;DHT22;10517;50.742;4.224;2023-07-20T02:35:05;16.30;99.90
20712;DHT22;10517;50.742;4.224;2023-07-20T02:37:31;16.30;99.90
20712;DHT22;10517;50.742;4.224;2023-07-20T02:39:57;16.30;99.90
20712;DHT22;10517;50.742;4.224;2023-07-20T02:42:23;16.40;99.90
20712;DHT22;10517;50.742;4.224;2023-07-20T02:44:51;16.40;99.90
20712;DHT22;10517;50.742;4.224;2023-07-20T02:47:17;16.30;99.90
20712;DHT22;10517;50.742;4.224;2023-07-20T02:49:42;16.30;99.90
20712;DHT22;10517;50.742;4.224;2023-07-20T02:52:09;16.30;99.90
20712;DHT22;10517;50.742;4.224;2023-07-20T02:54:34;16.20;99.90
20712;DHT22;10517;50.742;4.224;2023-07-20T02:57:00;16.10;99.90
20712;DHT22;10517;50.742;4.224;2023-07-20T02:59:26;16.10;99.90
20712;DHT22;10517;50.742;4.224;2023-07-20T03:01:52;16.10;99.90
20712;DHT22;10517;50.742;4.224;2023-07-20T03:04:17;16.10;99.90
20712;DHT22;10517;50.742;4.224;2023-07-20T03:06:43;16.00;99.90
20712;DHT22;10517;50.742;4.224;2023-07-20T03:09:09;16.00;99.90
20712;DHT22;10517;50.742;4.224;2023-07-20T03:11:35;16.10;99.90
20712;DHT22;10517;50.742;4.224;2023-07-20T03:14:00;16.10;99.90
20712;DHT22;10517;50.742;4.224;2023-07-20T03:16:26;16.10;99.90
20712;DHT22;10517;50.742;4.224;2023-07-20T03:18:52;16.10;99.90
20712;DHT22;10517;50.742;4.224;2023-07-20T03:21:17;16.10;99.90
20712;DHT22;10517;50.742;4.224;2023-07-20T03:23:43;16.10;99.90
20712;DHT22;10517;50.742;4.224;2023-07-20T03:26:09;16.10;99.90
20712;DHT22;10517;50.742;4.224;2023-07-20T03:28:35;16.10;99.90
20712;DHT22;10517;50.742;4.224;2023-07-20T03:31:01;16.10;99.90
20712;DHT22;10517;50.742;4.224;2023-07-20T03:33:28;16.10;99.90
20712;DHT22;10517;50.742;4.224;2023-07-20T03:35:54;16.00;99.90
20712;DHT22;10517;50.742;4.224;2023-07-20T03:38:24;16.00;99.90
20712;DHT22;10517;50.742;4.224;2023-07-20T03:40:53;15.90;99.90
20712;DHT22;10517;50.742;4.224;2023-07-20T03:43:20;15.90;99.90
20712;DHT22;10517;50.742;4.224;2023-07-20T03:45:46;15.90;99.90
20712;DHT22;10517;50.742;4.224;2023-07-20T03:48:14;16.00;99.90
20712;DHT22;10517;50.742;4.224;2023-07-20T03:50:40;16.10;99.90
20712;DHT22;10517;50.742;4.224;2023-07-20T03:53:06;16.10;99.90
20712;DHT22;10517;50.742;4.224;2023-07-20T03:55:31;16.10;99.90
20712;DHT22;10517;50.742;4.224;2023-07-20T03:57:57;16.00;99.90
20712;DHT22;10517;50.742;4.224;2023-07-20T04:00:22;16.10;99.90
20712;DHT22;10517;50.742;4.224;2023-07-20T04:02:48;16.10;99.90
20712;DHT22;10517;50.742;4.224;2023-07-20T04:05:14;16.20;99.90
20712;DHT22;10517;50.742;4.224;2023-07-20T04:07:40;16.20;99.90
20712;DHT22;10517;50.742;4.224;2023-07-20T04:10:06;16.20;99.90
20712;DHT22;10517;50.742;4.224;2023-07-20T04:12:31;16.20;99.90
20712;DHT22;10517;50.742;4.224;2023-07-20T04:14:57;16.30;99.90
20712;DHT22;10517;50.742;4.224;2023-07-20T04:17:22;16.30;99.90
20712;DHT22;10517;50.742;4.224;2023-07-20T04:19:48;16.30;99.90
20712;DHT22;10517;50.742;4.224;2023-07-20T04:22:14;16.30;99.90
20712;DHT22;10517;50.742;4.224;2023-07-20T04:24:42;16.30;99.90
20712;DHT22;10517;50.742;4.224;2023-07-20T04:27:08;16.20;99.90
20712;DHT22;10517;50.742;4.224;2023-07-20T04:29:33;16.20;99.90
20712;DHT22;10517;50.742;4.224;2023-07-20T04:31:59;16.20;99.90
20712;DHT22;10517;50.742;4.224;2023-07-20T04:34:24;16.30;99.90
20712;DHT22;10517;50.742;4.224;2023-07-20T04:36:50;16.40;99.90
20712;DHT22;10517;50.742;4.224;2023-07-20T04:39:15;16.40;99.90
20712;DHT22;10517;50.742;4.224;2023-07-20T04:41:41;16.40;99.90
20712;DHT22;10517;50.742;4.224;2023-07-20T04:44:07;16.40;99.90
20712;DHT22;10517;50.742;4.224;2023-07-20T04:46:32;16.40;99.90
20712;DHT22;10517;50.742;4.224;2023-07-20T04:48:58;16.30;99.90
20712;DHT22;10517;50.742;4.224;2023-07-20T04:51:23;16.40;99.90
20712;DHT22;10517;50.742;4.224;2023-07-20T04:53:49;16.40;99.90
20712;DHT22;10517;50.742;4.224;2023-07-20T04:56:15;16.50;99.90
20712;DHT22;10517;50.742;4.224;2023-07-20T04:58:40;16.50;99.90
20712;DHT22;10517;50.742;4.224;2023-07-20T05:01:06;16.40;99.90
20712;DHT22;10517;50.742;4.224;2023-07-20T05:03:31;16.30;99.90
20712;DHT22;10517;50.742;4.224;2023-07-20T05:05:57;16.30;99.90
20712;DHT22;10517;50.742;4.224;2023-07-20T05:08:23;16.30;99.90
20712;DHT22;10517;50.742;4.224;2023-07-20T05:10:49;16.50;99.90
20712;DHT22;10517;50.742;4.224;2023-07-20T05:13:15;16.50;99.90
20712;DHT22;10517;50.742;4.224;2023-07-20T05:15:40;16.60;99.90
20712;DHT22;10517;50.742;4.224;2023-07-20T05:18:06;16.70;99.90
20712;DHT22;10517;50.742;4.224;2023-07-20T05:20:32;16.70;99.90
20712;DHT22;10517;50.742;4.224;2023-07-20T05:22:59;16.70;99.90
20712;DHT22;10517;50.742;4.224;2023-07-20T05:25:25;16.70;99.90
20712;DHT22;10517;50.742;4.224;2023-07-20T05:27:51;16.70;99.90
20712;DHT22;10517;50.742;4.224;2023-07-20T05:30:18;16.70;99.90
20712;DHT22;10517;50.742;4.224;2023-07-20T05:32:44;16.80;99.90
20712;DHT22;10517;50.742;4.224;2023-07-20T05:35:12;16.90;99.90
20712;DHT22;10517;50.742;4.224;2023-07-20T05:37:39;16.90;99.90
20712;DHT22;10517;50.742;4.224;2023-07-20T05:40:05;17.10;99.90
20712;DHT22;10517;50.742;4.224;2023-07-20T05:42:33;17.20;99.90
20712;DHT22;10517;50.742;4.224;2023-07-20T05:44:58;17.30;99.90
20712;DHT22;10517;50.742;4.224;2023-07-20T05:47:24;17.30;99.90
20712;DHT22;10517;50.742;4.224;2023-07-20T05:49:49;17.40;99.90
20712;DHT22;10517;50.742;4.224;2023-07-20T05:52:15;17.30;99.90
20712;DHT22;10517;50.742;4.224;2023-07-20T05:54:41;17.20;99.90
20712;DHT22;10517;50.742;4.224;2023-07-20T05:57:07;17.40;99.90
20712;DHT22;10517;50.742;4.224;2023-07-20T05:59:33;17.50;99.90
20712;DHT22;10517;50.742;4.224;2023-07-20T06:01:58;17.60;99.90
20712;DHT22;10517;50.742;4.224;2023-07-20T06:04:24;17.60;99.90
20712;DHT22;10517;50.742;4.224;2023-07-20T06:06:50;17.60;99.90
20712;DHT22;10517;50.742;4.224;2023-07-20T06:09:15;17.50;99.90
20712;DHT22;10517;50.742;4.224;2023-07-20T06:11:41;17.60;99.90
20712;DHT22;10517;50.742;4.224;2023-07-20T06:14:06;17.60;99.90
20712;DHT22;10517;50.742;4.224;2023-07-20T06:16:32;17.70;99.90
20712;DHT22;10517;50.742;4.224;2023-07-20T06:18:59;17.70;99.90
20712;DHT22;10517;50.742;4.224;2023-07-20T06:21:25;17.90;99.90
20712;DHT22;10517;50.742;4.224;2023-07-20T06:23:51;18.00;99.90
20712;DHT22;10517;50.742;4.224;2023-07-20T06:26:17;18.20;99.90
20712;DHT22;10517;50.742;4.224;2023-07-20T06:28:42;18.20;99.90
20712;DHT22;10517;50.742;4.224;2023-07-20T06:31:08;18.40;99.90
20712;DHT22;10517;50.742;4.224;2023-07-20T06:33:33;18.50;99.90
20712;DHT22;10517;50.742;4.224;2023-07-20T06:36:00;18.50;99.90
20712;DHT22;10517;50.742;4.224;2023-07-20T06:38:25;18.60;99.90
20712;DHT22;10517;50.742;4.224;2023-07-20T06:40:52;18.60;99.90
20712;DHT22;10517;50.742;4.224;2023-07-20T06:43:17;18.70;99.90
20712;DHT22;10517;50.742;4.224;2023-07-20T06:45:44;18.70;99.90
20712;DHT22;10517;50.742;4.224;2023-07-20T06:48:09;18.80;99.90
20712;DHT22;10517;50.742;4.224;2023-07-20T06:50:35;18.80;99.90
20712;DHT22;10517;50.742;4.224;2023-07-20T06:53:00;18.80;99.90
20712;DHT22;10517;50.742;4.224;2023-07-20T06:55:29;18.80;99.90
20712;DHT22;10517;50.742;4.224;2023-07-20T06:57:55;19.00;99.90
20712;DHT22;10517;50.742;4.224;2023-07-20T07:00:20;19.10;99.90
20712;DHT22;10517;50.742;4.224;2023-07-20T07:02:46;19.20;99.90
20712;DHT22;10517;50.742;4.224;2023-07-20T07:05:12;19.20;99.90
20712;DHT22;10517;50.742;4.224;2023-07-20T07:07:39;19.20;99.90
20712;DHT22;10517;50.742;4.224;2023-07-20T07:10:05;19.30;99.90
20712;DHT22;10517;50.742;4.224;2023-07-20T07:12:31;19.20;99.90
20712;DHT22;10517;50.742;4.224;2023-07-20T07:14:57;19.30;99.90
20712;DHT22;10517;50.742;4.224;2023-07-20T07:17:23;19.10;99.90
20712;DHT22;10517;50.742;4.224;2023-07-20T07:19:49;19.20;99.90
20712;DHT22;10517;50.742;4.224;2023-07-20T07:22:15;19.10;99.90
20712;DHT22;10517;50.742;4.224;2023-07-20T07:24:40;19.30;99.90
20712;DHT22;10517;50.742;4.224;2023-07-20T07:27:08;19.40;99.90
20712;DHT22;10517;50.742;4.224;2023-07-20T07:29:34;19.50;99.90
20712;DHT22;10517;50.742;4.224;2023-07-20T07:32:00;19.60;99.90
20712;DHT22;10517;50.742;4.224;2023-07-20T07:34:25;19.60;99.90
20712;DHT22;10517;50.742;4.224;2023-07-20T07:36:51;19.70;99.90
20712;DHT22;10517;50.742;4.224;2023-07-20T07:39:17;19.70;99.90
20712;DHT22;10517;50.742;4.224;2023-07-20T07:41:42;19.90;99.90
20712;DHT22;10517;50.742;4.224;2023-07-20T07:44:08;20.20;99.90
20712;DHT22;10517;50.742;4.224;2023-07-20T07:46:34;20.20;99.90
20712;DHT22;10517;50.742;4.224;2023-07-20T07:48:59;20.40;99.90
20712;DHT22;10517;50.742;4.224;2023-07-20T07:51:25;20.50;99.90
20712;DHT22;10517;50.742;4.224;2023-07-20T07:53:52;20.50;99.90
20712;DHT22;10517;50.742;4.224;2023-07-20T07:56:18;20.70;99.90
20712;DHT22;10517;50.742;4.224;2023-07-20T07:58:51;20.60;99.90
20712;DHT22;10517;50.742;4.224;2023-07-20T08:01:17;20.60;99.90
20712;DHT22;10517;50.742;4.224;2023-07-20T08:03:44;20.50;99.90
20712;DHT22;10517;50.742;4.224;2023-07-20T08:06:12;20.60;99.90
20712;DHT22;10517;50.742;4.224;2023-07-20T08:08:38;20.50;99.90
20712;DHT22;10517;50.742;4.224;2023-07-20T08:11:04;20.40;99.90
20712;DHT22;10517;50.742;4.224;2023-07-20T08:13:30;20.20;99.90
20712;DHT22;10517;50.742;4.224;2023-07-20T08:15:56;20.10;99.90
20712;DHT22;10517;50.742;4.224;2023-07-20T08:18:22;19.80;99.90
20712;DHT22;10517;50.742;4.224;2023-07-20T08:20:47;19.70;99.90
20712;DHT22;10517;50.742;4.224;2023-07-20T08:23:14;19.70;99.90
20712;DHT22;10517;50.742;4.224;2023-07-20T08:25:40;19.80;99.90
20712;DHT22;10517;50.742;4.224;2023-07-20T08:28:10;19.80;99.90
20712;DHT22;10517;50.742;4.224;2023-07-20T08:30:48;20.00;99.90
20712;DHT22;10517;50.742;4.224;2023-07-20T08:33:18;19.90;99.90
20712;DHT22;10517;50.742;4.224;2023-07-20T08:35:45;20.00;99.90
20712;DHT22;10517;50.742;4.224;2023-07-20T08:38:11;20.20;99.90
20712;DHT22;10517;50.742;4.224;2023-07-20T08:40:42;20.50;99.90
20712;DHT22;10517;50.742;4.224;2023-07-20T08:43:10;20.80;99.90
20712;DHT22;10517;50.742;4.224;2023-07-20T08:45:39;21.00;99.90
20712;DHT22;10517;50.742;4.224;2023-07-20T08:48:06;21.10;99.90
20712;DHT22;10517;50.742;4.224;2023-07-20T08:50:32;21.30;99.90
20712;DHT22;10517;50.742;4.224;2023-07-20T08:52:59;21.20;99.90
20712;DHT22;10517;50.742;4.224;2023-07-20T08:55:26;21.30;99.90
20712;DHT22;10517;50.742;4.224;2023-07-20T08:57:56;21.40;99.90
20712;DHT22;10517;50.742;4.224;2023-07-20T09:00:23;21.50;99.90
20712;DHT22;10517;50.742;4.224;2023-07-20T09:02:53;21.50;99.90
20712;DHT22;10517;50.742;4.224;2023-07-20T09:05:20;21.40;99.90
20712;DHT22;10517;50.742;4.224;2023-07-20T09:07:46;21.20;99.90
20712;DHT22;10517;50.742;4.224;2023-07-20T09:10:12;21.20;99.90
20712;DHT22;10517;50.742;4.224;2023-07-20T09:12:39;21.30;99.90
20712;DHT22;10517;50.742;4.224;2023-07-20T09:15:06;21.30;99.90
20712;DHT22;10517;50.742;4.224;2023-07-20T09:17:32;21.40;99.90
20712;DHT22;10517;50.742;4.224;2023-07-20T09:19:57;21.70;99.90
20712;DHT22;10517;50.742;4.224;2023-07-20T09:22:30;21.60;99.90
20712;DHT22;10517;50.742;4.224;2023-07-20T09:24:56;21.70;99.90
20712;DHT22;10517;50.742;4.224;2023-07-20T09:27:21;22.00;99.90
20712;DHT22;10517;50.742;4.224;2023-07-20T09:29:51;22.10;99.90
20712;DHT22;10517;50.742;4.224;2023-07-20T09:32:21;22.40;99.90
20712;DHT22;10517;50.742;4.224;2023-07-20T09:34:47;22.80;99.90
20712;DHT22;10517;50.742;4.224;2023-07-20T09:37:13;23.10;99.90
20712;DHT22;10517;50.742;4.224;2023-07-20T09:39:45;23.40;99.90
20712;DHT22;10517;50.742;4.224;2023-07-20T09:42:12;23.40;99.90
20712;DHT22;10517;50.742;4.224;2023-07-20T09:44:43;23.40;99.90
20712;DHT22;10517;50.742;4.224;2023-07-20T09:47:09;23.40;99.90
20712;DHT22;10517;50.742;4.224;2023-07-20T09:49:41;23.40;99.90
20712;DHT22;10517;50.742;4.224;2023-07-20T09:52:11;23.50;99.90
20712;DHT22;10517;50.742;4.224;2023-07-20T09:54:38;23.70;99.90
20712;DHT22;10517;50.742;4.224;2023-07-20T09:57:07;23.60;99.90
20712;DHT22;10517;50.742;4.224;2023-07-20T09:59:34;23.80;99.90
20712;DHT22;10517;50.742;4.224;2023-07-20T10:02:01;24.00;99.90
20712;DHT22;10517;50.742;4.224;2023-07-20T10:04:28;24.10;99.90
20712;DHT22;10517;50.742;4.224;2023-07-20T10:06:55;24.20;99.90
20712;DHT22;10517;50.742;4.224;2023-07-20T10:09:22;24.20;99.90
20712;DHT22;10517;50.742;4.224;2023-07-20T10:11:50;24.10;99.90
20712;DHT22;10517;50.742;4.224;2023-07-20T10:14:20;23.90;99.90
20712;DHT22;10517;50.742;4.224;2023-07-20T10:16:54;24.20;99.90
20712;DHT22;10517;50.742;4.224;2023-07-20T10:19:47;24.20;99.90
20712;DHT22;10517;50.742;4.224;2023-07-20T10:22:15;24.40;99.90
20712;DHT22;10517;50.742;4.224;2023-07-20T10:24:46;24.00;99.90
20712;DHT22;10517;50.742;4.224;2023-07-20T10:27:13;24.10;99.90
20712;DHT22;10517;50.742;4.224;2023-07-20T10:29:40;23.90;99.90
20712;DHT22;10517;50.742;4.224;2023-07-20T10:32:08;24.50;99.90
20712;DHT22;10517;50.742;4.224;2023-07-20T10:34:33;24.60;99.90
20712;DHT22;10517;50.742;4.224;2023-07-20T10:36:59;24.40;99.90
20712;DHT22;10517;50.742;4.224;2023-07-20T10:39:28;24.50;99.90
20712;DHT22;10517;50.742;4.224;2023-07-20T10:42:08;24.10;99.90
20712;DHT22;10517;50.742;4.224;2023-07-20T10:44:37;24.10;99.90
20712;DHT22;10517;50.742;4.224;2023-07-20T10:47:11;24.20;99.90
20712;DHT22;10517;50.742;4.224;2023-07-20T10:50:00;24.20;99.90
20712;DHT22;10517;50.742;4.224;2023-07-20T10:52:26;24.50;99.90
20712;DHT22;10517;50.742;4.224;2023-07-20T10:54:51;24.80;99.90
20712;DHT22;10517;50.742;4.224;2023-07-20T10:57:28;24.70;99.90
20712;DHT22;10517;50.742;4.224;2023-07-20T11:00:13;24.80;99.90
20712;DHT22;10517;50.742;4.224;2023-07-20T11:02:47;25.10;99.90
20712;DHT22;10517;50.742;4.224;2023-07-20T11:07:57;25.50;99.90
20712;DHT22;10517;50.742;4.224;2023-07-20T11:10:23;25.40;99.90
20712;DHT22;10517;50.742;4.224;2023-07-20T11:13:17;25.50;99.90
20712;DHT22;10517;50.742;4.224;2023-07-20T11:15:46;25.40;99.90
20712;DHT22;10517;50.742;4.224;2023-07-20T11:18:12;25.10;99.90
20712;DHT22;10517;50.742;4.224;2023-07-20T11:20:38;25.00;99.90
20712;DHT22;10517;50.742;4.224;2023-07-20T11:23:04;24.80;99.90
20712;DHT22;10517;50.742;4.224;2023-07-20T11:25:39;24.70;99.90
20712;DHT22;10517;50.742;4.224;2023-07-20T11:28:07;24.60;99.90
20712;DHT22;10517;50.742;4.224;2023-07-20T11:30:34;24.70;99.90
20712;DHT22;10517;50.742;4.224;2023-07-20T11:33:00;24.90;99.90
20712;DHT22;10517;50.742;4.224;2023-07-20T11:35:25;25.10;99.90
20712;DHT22;10517;50.742;4.224;2023-07-20T11:37:51;24.70;99.90
20712;DHT22;10517;50.742;4.224;2023-07-20T11:40:17;24.50;99.90
20712;DHT22;10517;50.742;4.224;2023-07-20T11:42:43;24.40;99.90
20712;DHT22;10517;50.742;4.224;2023-07-20T11:45:09;24.90;99.90
20712;DHT22;10517;50.742;4.224;2023-07-20T11:47:40;25.30;99.90
20712;DHT22;10517;50.742;4.224;2023-07-20T11:50:06;25.90;99.90
20712;DHT22;10517;50.742;4.224;2023-07-20T11:52:32;26.40;99.90
20712;DHT22;10517;50.742;4.224;2023-07-20T11:54:58;26.20;99.90
20712;DHT22;10517;50.742;4.224;2023-07-20T11:57:24;26.60;99.90
20712;DHT22;10517;50.742;4.224;2023-07-20T11:59:57;26.40;99.90
20712;DHT22;10517;50.742;4.224;2023-07-20T12:02:24;26.10;99.90
20712;DHT22;10517;50.742;4.224;2023-07-20T12:04:54;25.90;99.90
20712;DHT22;10517;50.742;4.224;2023-07-20T12:07:20;26.20;99.90
20712;DHT22;10517;50.742;4.224;2023-07-20T12:10:06;26.10;99.90
20712;DHT22;10517;50.742;4.224;2023-07-20T12:12:38;26.20;99.90
20712;DHT22;10517;50.742;4.224;2023-07-20T12:17:46;26.50;99.90
20712;DHT22;10517;50.742;4.224;2023-07-20T12:20:12;26.10;99.90
20712;DHT22;10517;50.742;4.224;2023-07-20T12:22:42;26.40;99.90
20712;DHT22;10517;50.742;4.224;2023-07-20T12:25:08;26.70;99.90
20712;DHT22;10517;50.742;4.224;2023-07-20T12:27:37;26.60;99.90
20712;DHT22;10517;50.742;4.224;2023-07-20T12:30:07;26.10;99.90
20712;DHT22;10517;50.742;4.224;2023-07-20T12:32:33;26.00;99.90
20712;DHT22;10517;50.742;4.224;2023-07-20T12:34:59;25.50;99.90
20712;DHT22;10517;50.742;4.224;2023-07-20T12:37:26;25.10;99.90
20712;DHT22;10517;50.742;4.224;2023-07-20T12:39:52;24.80;99.90
20712;DHT22;10517;50.742;4.224;2023-07-20T12:42:18;24.70;99.90
20712;DHT22;10517;50.742;4.224;2023-07-20T12:44:43;24.70;99.90
20712;DHT22;10517;50.742;4.224;2023-07-20T12:47:09;24.50;99.90
20712;DHT22;10517;50.742;4.224;2023-07-20T12:49:35;24.40;99.90
20712;DHT22;10517;50.742;4.224;2023-07-20T12:52:00;24.20;99.90
20712;DHT22;10517;50.742;4.224;2023-07-20T12:54:26;24.00;99.90
20712;DHT22;10517;50.742;4.224;2023-07-20T12:56:51;24.00;99.90
20712;DHT22;10517;50.742;4.224;2023-07-20T12:59:17;24.10;99.90
20712;DHT22;10517;50.742;4.224;2023-07-20T13:01:42;24.00;99.90
20712;DHT22;10517;50.742;4.224;2023-07-20T13:04:09;24.00;99.90
20712;DHT22;10517;50.742;4.224;2023-07-20T13:06:35;23.90;99.90
20712;DHT22;10517;50.742;4.224;2023-07-20T13:09:01;23.80;99.90
20712;DHT22;10517;50.742;4.224;2023-07-20T13:11:27;23.60;99.90
20712;DHT22;10517;50.742;4.224;2023-07-20T13:13:53;23.60;99.90
20712;DHT22;10517;50.742;4.224;2023-07-20T13:16:18;23.50;99.90
20712;DHT22;10517;50.742;4.224;2023-07-20T13:18:44;23.20;99.90
20712;DHT22;10517;50.742;4.224;2023-07-20T13:21:09;23.00;99.90
20712;DHT22;10517;50.742;4.224;2023-07-20T13:23:39;22.80;99.90
20712;DHT22;10517;50.742;4.224;2023-07-20T13:26:05;22.80;99.90
20712;DHT22;10517;50.742;4.224;2023-07-20T13:28:31;22.80;99.90
20712;DHT22;10517;50.742;4.224;2023-07-20T13:30:56;22.90;99.90
20712;DHT22;10517;50.742;4.224;2023-07-20T13:33:22;22.80;99.90
20712;DHT22;10517;50.742;4.224;2023-07-20T13:35:47;22.60;99.90
20712;DHT22;10517;50.742;4.224;2023-07-20T13:38:13;22.60;99.90
20712;DHT22;10517;50.742;4.224;2023-07-20T13:40:39;22.70;99.90
20712;DHT22;10517;50.742;4.224;2023-07-20T13:43:04;22.90;99.90
20712;DHT22;10517;50.742;4.224;2023-07-20T13:45:30;23.10;99.90
20712;DHT22;10517;50.742;4.224;2023-07-20T13:47:55;23.50;99.90
20712;DHT22;10517;50.742;4.224;2023-07-20T13:50:21;23.70;99.90
20712;DHT22;10517;50.742;4.224;2023-07-20T13:52:46;23.70;99.90
20712;DHT22;10517;50.742;4.224;2023-07-20T13:55:12;24.20;99.90
20712;DHT22;10517;50.742;4.224;2023-07-20T13:57:38;24.50;99.90
20712;DHT22;10517;50.742;4.224;2023-07-20T14:00:04;24.90;99.90
20712;DHT22;10517;50.742;4.224;2023-07-20T14:02:30;26.30;99.90
20712;DHT22;10517;50.742;4.224;2023-07-20T14:04:56;26.90;99.90
20712;DHT22;10517;50.742;4.224;2023-07-20T14:07:22;27.60;99.90
20712;DHT22;10517;50.742;4.224;2023-07-20T14:09:47;28.90;99.90
20712;DHT22;10517;50.742;4.224;2023-07-20T14:12:13;29.10;99.90
20712;DHT22;10517;50.742;4.224;2023-07-20T14:14:40;29.70;99.90
20712;DHT22;10517;50.742;4.224;2023-07-20T14:17:06;29.30;99.90
20712;DHT22;10517;50.742;4.224;2023-07-20T14:19:32;29.30;99.90
20712;DHT22;10517;50.742;4.224;2023-07-20T14:21:58;30.00;99.90
20712;DHT22;10517;50.742;4.224;2023-07-20T14:24:25;30.60;99.90
20712;DHT22;10517;50.742;4.224;2023-07-20T14:26:51;30.50;99.90
20712;DHT22;10517;50.742;4.224;2023-07-20T14:29:17;30.00;99.90
20712;DHT22;10517;50.742;4.224;2023-07-20T14:31:44;28.90;99.90
20712;DHT22;10517;50.742;4.224;2023-07-20T14:34:09;28.30;99.90
20712;DHT22;10517;50.742;4.224;2023-07-20T14:36:35;27.80;99.90
20712;DHT22;10517;50.742;4.224;2023-07-20T14:39:01;27.80;99.90
20712;DHT22;10517;50.742;4.224;2023-07-20T14:41:26;27.40;99.90
20712;DHT22;10517;50.742;4.224;2023-07-20T14:43:52;27.00;99.90
20712;DHT22;10517;50.742;4.224;2023-07-20T14:46:18;26.70;99.90
20712;DHT22;10517;50.742;4.224;2023-07-20T14:48:43;26.10;99.90
20712;DHT22;10517;50.742;4.224;2023-07-20T14:51:09;25.60;99.90
20712;DHT22;10517;50.742;4.224;2023-07-20T14:53:34;25.00;99.90
20712;DHT22;10517;50.742;4.224;2023-07-20T14:56:01;24.30;99.90
20712;DHT22;10517;50.742;4.224;2023-07-20T14:58:26;23.80;99.90
20712;DHT22;10517;50.742;4.224;2023-07-20T15:00:52;23.60;99.90
20712;DHT22;10517;50.742;4.224;2023-07-20T15:03:18;23.50;99.90
20712;DHT22;10517;50.742;4.224;2023-07-20T15:05:43;23.50;99.90
20712;DHT22;10517;50.742;4.224;2023-07-20T15:08:09;23.50;99.90
20712;DHT22;10517;50.742;4.224;2023-07-20T15:10:35;23.40;99.90
20712;DHT22;10517;50.742;4.224;2023-07-20T15:13:00;23.10;99.90
20712;DHT22;10517;50.742;4.224;2023-07-20T15:15:26;22.90;99.90
20712;DHT22;10517;50.742;4.224;2023-07-20T15:17:51;22.70;99.90
20712;DHT22;10517;50.742;4.224;2023-07-20T15:20:18;22.70;99.90
20712;DHT22;10517;50.742;4.224;2023-07-20T15:22:43;22.50;99.90
20712;DHT22;10517;50.742;4.224;2023-07-20T15:25:09;22.50;99.90
20712;DHT22;10517;50.742;4.224;2023-07-20T15:27:38;22.60;99.90
20712;DHT22;10517;50.742;4.224;2023-07-20T15:30:04;22.60;99.90
20712;DHT22;10517;50.742;4.224;2023-07-20T15:32:30;22.70;99.90
20712;DHT22;10517;50.742;4.224;2023-07-20T15:34:56;22.60;99.90
20712;DHT22;10517;50.742;4.224;2023-07-20T15:37:21;22.20;99.90
20712;DHT22;10517;50.742;4.224;2023-07-20T15:39:50;21.60;99.90
20712;DHT22;10517;50.742;4.224;2023-07-20T15:42:16;20.60;99.90
20712;DHT22;10517;50.742;4.224;2023-07-20T15:44:42;19.20;99.90